sensor_id;sensor_type;location;lat;lon;timestamp;pressure;altitude;pressure_sealevel;temperature;humidity
37904;BME280;23738;50.422;18.758;2023-04-10T00:00:48;99327.20;;;7.28;78.99
37904;BME280;23738;50.422;18.758;2023-04-10T00:03:24;99326.15;;;7.28;78.86
37904;BME280;23738;50.422;18.758;2023-04-10T00:05:54;99327.84;;;7.30;79.06
37904;BME280;23738;50.422;18.758;2023-04-10T00:08:25;99319.05;;;7.34;79.23
37904;BME280;23738;50.422;18.758;2023-04-10T00:10:54;99319.60;;;7.36;78.89
37904;BME280;23738;50.422;18.758;2023-04-10T00:13:24;99313.43;;;7.34;79.27
37904;BME280;23738;50.422;18.758;2023-04-10T00:15:54;99309.79;;;7.32;79.07
37904;BME280;23738;50.422;18.758;2023-04-10T00:18:33;99306.08;;;7.33;79.03
37904;BME280;23738;50.422;18.758;2023-04-10T00:21:03;99301.90;;;7.32;78.93
37904;BME280;23738;50.422;18.758;2023-04-10T00:23:33;99299.04;;;7.35;79.21
37904;BME280;23738;50.422;18.758;2023-04-10T00:26:03;99291.33;;;7.36;79.28
37904;BME280;23738;50.422;18.758;2023-04-10T00:28:37;99291.25;;;7.37;79.46
37904;BME280;23738;50.422;18.758;2023-04-10T00:31:07;99289.33;;;7.30;79.37
37904;BME280;23738;50.422;18.758;2023-04-10T00:33:36;99283.75;;;7.21;79.20
37904;BME280;23738;50.422;18.758;2023-04-10T00:36:07;99281.57;;;7.17;79.26
37904;BME280;23738;50.422;18.758;2023-04-10T00:38:36;99287.32;;;7.19;79.63
37904;BME280;23738;50.422;18.758;2023-04-10T00:41:07;99290.17;;;7.22;79.74
37904;BME280;23738;50.422;18.758;2023-04-10T00:43:36;99291.75;;;7.24;79.70
37904;BME280;23738;50.422;18.758;2023-04-10T00:46:06;99294.41;;;7.24;79.92
37904;BME280;23738;50.422;18.758;2023-04-10T00:48:35;99286.91;;;7.16;80.07
37904;BME280;23738;50.422;18.758;2023-04-10T00:51:07;99291.83;;;7.16;80.22
37904;BME280;23738;50.422;18.758;2023-04-10T00:53:36;99290.30;;;7.14;80.27
37904;BME280;23738;50.422;18.758;2023-04-10T00:56:07;99287.50;;;7.16;80.46
37904;BME280;23738;50.422;18.758;2023-04-10T00:58:37;99287.83;;;7.19;80.18
37904;BME280;23738;50.422;18.758;2023-04-10T01:01:33;99288.30;;;7.23;80.50
37904;BME280;23738;50.422;18.758;2023-04-10T01:04:06;99294.21;;;7.27;80.78
37904;BME280;23738;50.422;18.758;2023-04-10T01:06:49;99294.41;;;7.23;80.82
37904;BME280;23738;50.422;18.758;2023-04-10T01:09:34;99288.25;;;7.16;80.90
37904;BME280;23738;50.422;18.758;2023-04-10T01:12:14;99294.69;;;7.13;80.81
37904;BME280;23738;50.422;18.758;2023-04-10T01:14:55;99297.31;;;7.12;80.99
37904;BME280;23738;50.422;18.758;2023-04-10T01:17:30;99298.23;;;7.16;80.91
37904;BME280;23738;50.422;18.758;2023-04-10T01:20:08;99301.52;;;7.17;80.92
37904;BME280;23738;50.422;18.758;2023-04-10T01:22:48;99298.30;;;7.18;81.23
37904;BME280;23738;50.422;18.758;2023-04-10T01:25:39;99300.90;;;7.17;81.45
37904;BME280;23738;50.422;18.758;2023-04-10T01:31:01;99303.13;;;7.07;81.34
37904;BME280;23738;50.422;18.758;2023-04-10T01:33:37;99293.05;;;7.03;81.40
37904;BME280;23738;50.422;18.758;2023-04-10T01:36:09;99297.03;;;7.05;81.42
37904;BME280;23738;50.422;18.758;2023-04-10T01:38:41;99297.77;;;7.07;81.59
37904;BME280;23738;50.422;18.758;2023-04-10T01:41:12;99290.64;;;7.06;81.67
37904;BME280;23738;50.422;18.758;2023-04-10T01:43:44;99288.39;;;7.09;81.84
37904;BME280;23738;50.422;18.758;2023-04-10T01:46:17;99285.53;;;7.08;82.04
37904;BME280;23738;50.422;18.758;2023-04-10T01:48:47;99286.46;;;7.06;82.12
37904;BME280;23738;50.422;18.758;2023-04-10T01:51:25;99283.19;;;7.04;82.26
37904;BME280;23738;50.422;18.758;2023-04-10T01:53:56;99274.85;;;7.01;82.25
37904;BME280;23738;50.422;18.758;2023-04-10T01:56:26;99269.04;;;6.97;82.35
37904;BME280;23738;50.422;18.758;2023-04-10T01:58:57;99277.75;;;7.00;82.38
37904;BME280;23738;50.422;18.758;2023-04-10T02:01:28;99282.12;;;7.01;82.36
37904;BME280;23738;50.422;18.758;2023-04-10T02:03:58;99288.35;;;7.01;82.71
37904;BME280;23738;50.422;18.758;2023-04-10T02:06:36;99291.58;;;7.04;83.10
37904;BME280;23738;50.422;18.758;2023-04-10T02:09:11;99298.55;;;7.08;82.85
37904;BME280;23738;50.422;18.758;2023-04-10T02:11:50;99302.48;;;7.12;82.91
37904;BME280;23738;50.422;18.758;2023-04-10T02:14:44;99300.98;;;7.18;83.38
37904;BME280;23738;50.422;18.758;2023-04-10T02:17:17;99306.46;;;7.22;83.27
37904;BME280;23738;50.422;18.758;2023-04-10T02:19:55;99309.09;;;7.27;83.26
37904;BME280;23738;50.422;18.758;2023-04-10T02:22:25;99312.54;;;7.31;83.31
37904;BME280;23738;50.422;18.758;2023-04-10T02:24:57;99310.98;;;7.34;83.39
37904;BME280;23738;50.422;18.758;2023-04-10T02:27:31;99307.48;;;7.33;83.32
37904;BME280;23738;50.422;18.758;2023-04-10T02:30:01;99308.23;;;7.32;83.07
37904;BME280;23738;50.422;18.758;2023-04-10T02:32:30;99308.59;;;7.34;83.31
37904;BME280;23738;50.422;18.758;2023-04-10T02:35:01;99309.73;;;7.38;83.10
37904;BME280;23738;50.422;18.758;2023-04-10T02:37:31;99314.17;;;7.41;83.47
37904;BME280;23738;50.422;18.758;2023-04-10T02:40:02;99312.40;;;7.39;83.54
37904;BME280;23738;50.422;18.758;2023-04-10T02:42:31;99304.85;;;7.33;83.55
37904;BME280;23738;50.422;18.758;2023-04-10T02:45:01;99308.04;;;7.32;83.51
37904;BME280;23738;50.422;18.758;2023-04-10T02:47:30;99305.06;;;7.27;83.16
37904;BME280;23738;50.422;18.758;2023-04-10T02:50:00;99303.49;;;7.26;83.39
37904;BME280;23738;50.422;18.758;2023-04-10T02:52:29;99297.02;;;7.24;83.59
37904;BME280;23738;50.422;18.758;2023-04-10T02:54:59;99294.52;;;7.21;83.47
37904;BME280;23738;50.422;18.758;2023-04-10T02:57:28;99293.48;;;7.14;83.79
37904;BME280;23738;50.422;18.758;2023-04-10T02:59:58;99291.07;;;7.07;83.91
37904;BME280;23738;50.422;18.758;2023-04-10T03:02:27;99299.40;;;7.06;84.08
37904;BME280;23738;50.422;18.758;2023-04-10T03:04:57;99305.20;;;7.08;84.16
37904;BME280;23738;50.422;18.758;2023-04-10T03:07:26;99305.58;;;7.12;84.07
37904;BME280;23738;50.422;18.758;2023-04-10T03:09:56;99304.80;;;7.19;84.29
37904;BME280;23738;50.422;18.758;2023-04-10T03:12:25;99300.62;;;7.27;84.45
37904;BME280;23738;50.422;18.758;2023-04-10T03:14:55;99302.87;;;7.29;84.51
37904;BME280;23738;50.422;18.758;2023-04-10T03:17:26;99304.50;;;7.27;84.34
37904;BME280;23738;50.422;18.758;2023-04-10T03:19:57;99309.05;;;7.21;84.21
37904;BME280;23738;50.422;18.758;2023-04-10T03:22:26;99299.48;;;7.17;84.27
37904;BME280;23738;50.422;18.758;2023-04-10T03:24:59;99304.38;;;7.19;84.28
37904;BME280;23738;50.422;18.758;2023-04-10T03:27:28;99307.59;;;7.20;84.59
37904;BME280;23738;50.422;18.758;2023-04-10T03:30:17;99314.44;;;7.21;84.41
37904;BME280;23738;50.422;18.758;2023-04-10T03:32:46;99316.78;;;7.19;84.60
37904;BME280;23738;50.422;18.758;2023-04-10T03:35:16;99318.13;;;7.14;84.46
37904;BME280;23738;50.422;18.758;2023-04-10T03:37:47;99313.70;;;7.07;84.49
37904;BME280;23738;50.422;18.758;2023-04-10T03:40:16;99316.36;;;7.08;84.62
37904;BME280;23738;50.422;18.758;2023-04-10T03:42:48;99314.54;;;7.14;84.70
37904;BME280;23738;50.422;18.758;2023-04-10T03:45:18;99308.61;;;7.15;84.66
37904;BME280;23738;50.422;18.758;2023-04-10T03:47:50;99306.05;;;7.18;84.88
37904;BME280;23738;50.422;18.758;2023-04-10T03:50:20;99312.33;;;7.21;85.18
37904;BME280;23738;50.422;18.758;2023-04-10T03:52:52;99316.98;;;7.19;84.72
37904;BME280;23738;50.422;18.758;2023-04-10T03:55:22;99313.02;;;7.13;84.69
37904;BME280;23738;50.422;18.758;2023-04-10T03:57:52;99319.42;;;7.12;84.50
37904;BME280;23738;50.422;18.758;2023-04-10T04:00:23;99317.06;;;7.10;84.51
37904;BME280;23738;50.422;18.758;2023-04-10T04:02:53;99316.71;;;7.10;84.79
37904;BME280;23738;50.422;18.758;2023-04-10T04:05:26;99317.58;;;7.10;84.81
37904;BME280;23738;50.422;18.758;2023-04-10T04:07:55;99321.30;;;7.09;84.87
37904;BME280;23738;50.422;18.758;2023-04-10T04:10:25;99318.93;;;7.10;85.04
37904;BME280;23738;50.422;18.758;2023-04-10T04:12:54;99314.79;;;7.09;85.08
37904;BME280;23738;50.422;18.758;2023-04-10T04:15:24;99307.38;;;7.03;84.81
37904;BME280;23738;50.422;18.758;2023-04-10T04:17:54;99319.11;;;7.07;84.78
37904;BME280;23738;50.422;18.758;2023-04-10T04:20:23;99319.26;;;7.04;84.71
37904;BME280;23738;50.422;18.758;2023-04-10T04:22:53;99315.88;;;7.01;85.00
37904;BME280;23738;50.422;18.758;2023-04-10T04:25:23;99314.25;;;6.93;84.78
37904;BME280;23738;50.422;18.758;2023-04-10T04:27:53;99314.40;;;6.89;84.94
37904;BME280;23738;50.422;18.758;2023-04-10T04:30:24;99313.16;;;6.90;85.38
37904;BME280;23738;50.422;18.758;2023-04-10T04:32:54;99313.56;;;6.91;85.36
37904;BME280;23738;50.422;18.758;2023-04-10T04:35:26;99315.28;;;6.93;85.45
37904;BME280;23738;50.422;18.758;2023-04-10T04:37:58;99324.98;;;6.98;85.69
37904;BME280;23738;50.422;18.758;2023-04-10T04:40:28;99330.33;;;7.00;85.49
37904;BME280;23738;50.422;18.758;2023-04-10T04:43:00;99327.33;;;7.00;85.34
37904;BME280;23738;50.422;18.758;2023-04-10T04:45:30;99324.30;;;6.99;85.53
37904;BME280;23738;50.422;18.758;2023-04-10T04:48:00;99323.55;;;7.00;85.31
37904;BME280;23738;50.422;18.758;2023-04-10T04:50:29;99324.08;;;6.99;85.52
37904;BME280;23738;50.422;18.758;2023-04-10T04:52:58;99321.12;;;7.00;85.23
37904;BME280;23738;50.422;18.758;2023-04-10T04:55:29;99315.97;;;6.95;85.47
37904;BME280;23738;50.422;18.758;2023-04-10T04:58:00;99318.76;;;6.94;85.38
37904;BME280;23738;50.422;18.758;2023-04-10T05:00:29;99319.96;;;6.92;85.84
37904;BME280;23738;50.422;18.758;2023-04-10T05:03:04;99325.09;;;6.91;85.79
37904;BME280;23738;50.422;18.758;2023-04-10T05:05:34;99325.76;;;6.90;85.99
37904;BME280;23738;50.422;18.758;2023-04-10T05:08:04;99334.27;;;6.90;86.00
37904;BME280;23738;50.422;18.758;2023-04-10T05:10:42;99340.01;;;6.93;85.79
37904;BME280;23738;50.422;18.758;2023-04-10T05:13:12;99334.41;;;6.93;85.83
37904;BME280;23738;50.422;18.758;2023-04-10T05:15:42;99332.95;;;6.91;86.20
37904;BME280;23738;50.422;18.758;2023-04-10T05:18:12;99339.73;;;6.92;86.25
37904;BME280;23738;50.422;18.758;2023-04-10T05:20:49;99346.00;;;6.87;86.19
37904;BME280;23738;50.422;18.758;2023-04-10T05:23:18;99342.65;;;6.82;86.23
37904;BME280;23738;50.422;18.758;2023-04-10T05:25:50;99339.52;;;6.82;85.96
37904;BME280;23738;50.422;18.758;2023-04-10T05:28:20;99337.12;;;6.81;86.16
37904;BME280;23738;50.422;18.758;2023-04-10T05:30:50;99342.73;;;6.84;86.49
37904;BME280;23738;50.422;18.758;2023-04-10T05:33:22;99346.52;;;6.90;86.59
37904;BME280;23738;50.422;18.758;2023-04-10T05:35:55;99337.64;;;6.87;86.51
37904;BME280;23738;50.422;18.758;2023-04-10T05:38:26;99348.66;;;6.94;86.52
37904;BME280;23738;50.422;18.758;2023-04-10T05:40:56;99348.73;;;6.95;86.40
37904;BME280;23738;50.422;18.758;2023-04-10T05:43:25;99360.91;;;6.99;86.52
37904;BME280;23738;50.422;18.758;2023-04-10T05:45:55;99362.86;;;7.04;86.75
37904;BME280;23738;50.422;18.758;2023-04-10T05:48:24;99362.42;;;7.06;86.72
37904;BME280;23738;50.422;18.758;2023-04-10T05:50:55;99360.25;;;7.04;86.69
37904;BME280;23738;50.422;18.758;2023-04-10T05:53:31;99363.60;;;7.05;86.49
37904;BME280;23738;50.422;18.758;2023-04-10T05:56:04;99360.11;;;7.03;86.45
37904;BME280;23738;50.422;18.758;2023-04-10T05:58:33;99363.08;;;7.07;86.51
37904;BME280;23738;50.422;18.758;2023-04-10T06:01:02;99366.23;;;7.10;86.63
37904;BME280;23738;50.422;18.758;2023-04-10T06:03:32;99363.56;;;7.12;86.62
37904;BME280;23738;50.422;18.758;2023-04-10T06:06:01;99364.19;;;7.10;86.56
37904;BME280;23738;50.422;18.758;2023-04-10T06:08:31;99361.30;;;7.09;86.72
37904;BME280;23738;50.422;18.758;2023-04-10T06:11:01;99363.05;;;7.09;86.79
37904;BME280;23738;50.422;18.758;2023-04-10T06:13:31;99362.52;;;7.12;86.78
37904;BME280;23738;50.422;18.758;2023-04-10T06:16:00;99361.30;;;7.14;86.92
37904;BME280;23738;50.422;18.758;2023-04-10T06:18:30;99363.44;;;7.13;86.90
37904;BME280;23738;50.422;18.758;2023-04-10T06:20:59;99362.40;;;7.13;87.02
37904;BME280;23738;50.422;18.758;2023-04-10T06:23:29;99364.99;;;7.15;87.05
37904;BME280;23738;50.422;18.758;2023-04-10T06:25:58;99363.40;;;7.19;87.41
37904;BME280;23738;50.422;18.758;2023-04-10T06:28:28;99364.20;;;7.21;87.29
37904;BME280;23738;50.422;18.758;2023-04-10T06:30:57;99362.67;;;7.24;87.17
37904;BME280;23738;50.422;18.758;2023-04-10T06:33:30;99365.16;;;7.27;87.54
37904;BME280;23738;50.422;18.758;2023-04-10T06:35:59;99367.75;;;7.29;87.41
37904;BME280;23738;50.422;18.758;2023-04-10T06:38:29;99372.27;;;7.29;87.64
37904;BME280;23738;50.422;18.758;2023-04-10T06:41:00;99378.05;;;7.35;87.66
37904;BME280;23738;50.422;18.758;2023-04-10T06:43:31;99380.71;;;7.43;87.93
37904;BME280;23738;50.422;18.758;2023-04-10T06:46:01;99383.98;;;7.47;87.87
37904;BME280;23738;50.422;18.758;2023-04-10T06:48:31;99377.52;;;7.40;87.70
37904;BME280;23738;50.422;18.758;2023-04-10T06:51:01;99379.57;;;7.35;87.69
37904;BME280;23738;50.422;18.758;2023-04-10T06:53:30;99376.77;;;7.32;87.70
37904;BME280;23738;50.422;18.758;2023-04-10T06:56:00;99379.41;;;7.35;87.67
37904;BME280;23738;50.422;18.758;2023-04-10T06:58:30;99380.35;;;7.43;87.88
37904;BME280;23738;50.422;18.758;2023-04-10T07:00:59;99382.67;;;7.47;87.97
37904;BME280;23738;50.422;18.758;2023-04-10T07:03:31;99381.49;;;7.50;87.85
37904;BME280;23738;50.422;18.758;2023-04-10T07:06:00;99382.27;;;7.53;88.09
37904;BME280;23738;50.422;18.758;2023-04-10T07:08:30;99384.58;;;7.54;88.25
37904;BME280;23738;50.422;18.758;2023-04-10T07:11:00;99382.41;;;7.55;88.22
37904;BME280;23738;50.422;18.758;2023-04-10T07:13:29;99384.13;;;7.57;88.16
37904;BME280;23738;50.422;18.758;2023-04-10T07:15:58;99379.69;;;7.59;88.10
37904;BME280;23738;50.422;18.758;2023-04-10T07:18:28;99378.92;;;7.66;88.33
37904;BME280;23738;50.422;18.758;2023-04-10T07:20:57;99381.34;;;7.70;88.24
37904;BME280;23738;50.422;18.758;2023-04-10T07:23:26;99382.64;;;7.73;88.63
37904;BME280;23738;50.422;18.758;2023-04-10T07:25:55;99385.40;;;7.79;88.70
37904;BME280;23738;50.422;18.758;2023-04-10T07:28:25;99386.20;;;7.82;88.76
37904;BME280;23738;50.422;18.758;2023-04-10T07:30:54;99386.77;;;7.90;88.77
37904;BME280;23738;50.422;18.758;2023-04-10T07:33:24;99382.93;;;7.95;88.51
37904;BME280;23738;50.422;18.758;2023-04-10T07:35:54;99375.83;;;7.94;88.45
37904;BME280;23738;50.422;18.758;2023-04-10T07:38:23;99373.00;;;7.94;88.40
37904;BME280;23738;50.422;18.758;2023-04-10T07:40:57;99367.98;;;7.94;88.39
37904;BME280;23738;50.422;18.758;2023-04-10T07:43:27;99364.23;;;7.94;88.56
37904;BME280;23738;50.422;18.758;2023-04-10T07:45:56;99364.09;;;8.00;88.61
37904;BME280;23738;50.422;18.758;2023-04-10T07:48:26;99366.83;;;8.03;88.70
37904;BME280;23738;50.422;18.758;2023-04-10T07:50:55;99366.27;;;8.06;88.69
37904;BME280;23738;50.422;18.758;2023-04-10T07:53:25;99362.03;;;8.11;88.75
37904;BME280;23738;50.422;18.758;2023-04-10T07:55:55;99356.46;;;8.16;88.93
37904;BME280;23738;50.422;18.758;2023-04-10T07:58:24;99352.16;;;8.17;88.76
37904;BME280;23738;50.422;18.758;2023-04-10T08:00:53;99349.02;;;8.18;88.86
37904;BME280;23738;50.422;18.758;2023-04-10T08:03:23;99349.36;;;8.25;88.91
37904;BME280;23738;50.422;18.758;2023-04-10T08:05:53;99348.23;;;8.32;88.96
37904;BME280;23738;50.422;18.758;2023-04-10T08:08:22;99347.95;;;8.41;89.22
37904;BME280;23738;50.422;18.758;2023-04-10T08:10:52;99351.39;;;8.52;89.27
37904;BME280;23738;50.422;18.758;2023-04-10T08:13:21;99351.05;;;8.60;89.43
37904;BME280;23738;50.422;18.758;2023-04-10T08:15:51;99354.44;;;8.65;89.40
37904;BME280;23738;50.422;18.758;2023-04-10T08:18:20;99357.16;;;8.74;89.86
37904;BME280;23738;50.422;18.758;2023-04-10T08:20:49;99359.64;;;8.85;89.48
37904;BME280;23738;50.422;18.758;2023-04-10T08:23:19;99354.63;;;8.91;89.30
37904;BME280;23738;50.422;18.758;2023-04-10T08:25:48;99352.36;;;8.95;89.40
37904;BME280;23738;50.422;18.758;2023-04-10T08:28:18;99347.61;;;9.00;89.34
37904;BME280;23738;50.422;18.758;2023-04-10T08:30:48;99351.11;;;9.08;89.61
37904;BME280;23738;50.422;18.758;2023-04-10T08:33:17;99352.70;;;9.14;89.71
37904;BME280;23738;50.422;18.758;2023-04-10T08:35:48;99349.02;;;9.24;89.79
37904;BME280;23738;50.422;18.758;2023-04-10T08:38:18;99354.73;;;9.36;89.77
37904;BME280;23738;50.422;18.758;2023-04-10T08:40:48;99354.76;;;9.43;89.55
37904;BME280;23738;50.422;18.758;2023-04-10T08:43:18;99355.67;;;9.47;89.46
37904;BME280;23738;50.422;18.758;2023-04-10T08:45:47;99357.55;;;9.46;89.19
37904;BME280;23738;50.422;18.758;2023-04-10T08:48:18;99355.61;;;9.46;89.32
37904;BME280;23738;50.422;18.758;2023-04-10T08:50:50;99355.99;;;9.47;89.17
37904;BME280;23738;50.422;18.758;2023-04-10T08:53:20;99352.27;;;9.51;89.27
37904;BME280;23738;50.422;18.758;2023-04-10T08:55:51;99354.94;;;9.55;89.46
37904;BME280;23738;50.422;18.758;2023-04-10T08:58:21;99355.52;;;9.61;89.54
37904;BME280;23738;50.422;18.758;2023-04-10T09:00:52;99364.02;;;9.64;89.47
37904;BME280;23738;50.422;18.758;2023-04-10T09:03:22;99367.59;;;9.64;89.20
37904;BME280;23738;50.422;18.758;2023-04-10T09:05:52;99365.55;;;9.67;89.37
37904;BME280;23738;50.422;18.758;2023-04-10T09:08:22;99362.84;;;9.74;89.41
37904;BME280;23738;50.422;18.758;2023-04-10T09:10:51;99363.02;;;9.81;89.65
37904;BME280;23738;50.422;18.758;2023-04-10T09:13:35;99360.90;;;9.83;89.21
37904;BME280;23738;50.422;18.758;2023-04-10T09:16:08;99359.54;;;9.86;89.45
37904;BME280;23738;50.422;18.758;2023-04-10T09:18:46;99358.95;;;9.91;89.56
37904;BME280;23738;50.422;18.758;2023-04-10T09:21:17;99356.88;;;9.95;89.36
37904;BME280;23738;50.422;18.758;2023-04-10T09:23:47;99357.52;;;10.00;89.23
37904;BME280;23738;50.422;18.758;2023-04-10T09:26:25;99355.86;;;10.05;89.21
37904;BME280;23738;50.422;18.758;2023-04-10T09:29:00;99358.23;;;10.05;89.03
37904;BME280;23738;50.422;18.758;2023-04-10T09:31:34;99348.27;;;10.05;89.29
37904;BME280;23738;50.422;18.758;2023-04-10T09:34:13;99349.23;;;10.13;89.11
37904;BME280;23738;50.422;18.758;2023-04-10T09:36:44;99349.73;;;10.18;89.12
37904;BME280;23738;50.422;18.758;2023-04-10T09:39:21;99351.62;;;10.20;89.05
37904;BME280;23738;50.422;18.758;2023-04-10T09:41:53;99350.02;;;10.24;89.04
37904;BME280;23738;50.422;18.758;2023-04-10T09:44:31;99352.43;;;10.32;89.18
37904;BME280;23738;50.422;18.758;2023-04-10T09:47:16;99349.71;;;10.38;89.00
37904;BME280;23738;50.422;18.758;2023-04-10T09:49:47;99351.09;;;10.43;89.04
37904;BME280;23738;50.422;18.758;2023-04-10T09:52:20;99349.29;;;10.47;89.07
37904;BME280;23738;50.422;18.758;2023-04-10T09:54:49;99342.15;;;10.49;89.00
37904;BME280;23738;50.422;18.758;2023-04-10T09:57:19;99334.92;;;10.55;89.10
37904;BME280;23738;50.422;18.758;2023-04-10T09:59:51;99331.27;;;10.67;89.01
37904;BME280;23738;50.422;18.758;2023-04-10T10:02:22;99328.71;;;10.77;88.73
37904;BME280;23738;50.422;18.758;2023-04-10T10:04:52;99330.50;;;10.82;88.87
37904;BME280;23738;50.422;18.758;2023-04-10T10:07:24;99327.63;;;10.87;88.54
37904;BME280;23738;50.422;18.758;2023-04-10T10:09:54;99321.90;;;10.90;88.52
37904;BME280;23738;50.422;18.758;2023-04-10T10:12:25;99322.98;;;10.98;88.94
37904;BME280;23738;50.422;18.758;2023-04-10T10:15:02;99321.12;;;11.07;89.02
37904;BME280;23738;50.422;18.758;2023-04-10T10:17:38;99319.96;;;11.19;89.01
37904;BME280;23738;50.422;18.758;2023-04-10T10:20:11;99317.95;;;11.27;88.72
37904;BME280;23738;50.422;18.758;2023-04-10T10:22:42;99312.92;;;11.39;88.90
37904;BME280;23738;50.422;18.758;2023-04-10T10:25:13;99310.56;;;11.52;89.17
37904;BME280;23738;50.422;18.758;2023-04-10T10:27:43;99308.84;;;11.65;89.07
37904;BME280;23738;50.422;18.758;2023-04-10T10:30:14;99303.34;;;11.78;88.94
37904;BME280;23738;50.422;18.758;2023-04-10T10:32:46;99299.58;;;11.93;88.73
37904;BME280;23738;50.422;18.758;2023-04-10T10:35:18;99302.05;;;12.02;87.89
37904;BME280;23738;50.422;18.758;2023-04-10T10:37:48;99300.45;;;12.00;87.31
37904;BME280;23738;50.422;18.758;2023-04-10T10:40:21;99301.36;;;11.93;86.81
37904;BME280;23738;50.422;18.758;2023-04-10T10:42:56;99305.55;;;11.86;86.98
37904;BME280;23738;50.422;18.758;2023-04-10T10:45:35;99302.88;;;11.85;87.12
37904;BME280;23738;50.422;18.758;2023-04-10T10:48:06;99299.30;;;11.90;87.64
37904;BME280;23738;50.422;18.758;2023-04-10T10:50:52;99298.95;;;12.01;87.49
37904;BME280;23738;50.422;18.758;2023-04-10T10:53:34;99300.60;;;12.10;86.73
37904;BME280;23738;50.422;18.758;2023-04-10T10:56:34;99299.30;;;12.16;86.62
37904;BME280;23738;50.422;18.758;2023-04-10T10:59:04;99294.23;;;12.17;86.03
37904;BME280;23738;50.422;18.758;2023-04-10T11:01:33;99294.13;;;12.21;86.29
37904;BME280;23738;50.422;18.758;2023-04-10T11:06:58;99290.82;;;12.20;85.43
37904;BME280;23738;50.422;18.758;2023-04-10T11:09:48;99285.39;;;12.19;85.71
37904;BME280;23738;50.422;18.758;2023-04-10T11:12:18;99286.48;;;12.24;85.44
37904;BME280;23738;50.422;18.758;2023-04-10T11:14:58;99279.46;;;12.28;85.35
37904;BME280;23738;50.422;18.758;2023-04-10T11:17:51;99277.91;;;12.38;85.65
37904;BME280;23738;50.422;18.758;2023-04-10T11:20:22;99275.72;;;12.45;85.65
37904;BME280;23738;50.422;18.758;2023-04-10T11:23:13;99275.58;;;12.60;86.07
37904;BME280;23738;50.422;18.758;2023-04-10T11:25:50;99273.58;;;12.73;85.27
37904;BME280;23738;50.422;18.758;2023-04-10T11:28:37;99273.48;;;12.79;85.47
37904;BME280;23738;50.422;18.758;2023-04-10T11:31:16;99271.84;;;12.77;85.06
37904;BME280;23738;50.422;18.758;2023-04-10T11:33:47;99268.69;;;12.81;85.53
37904;BME280;23738;50.422;18.758;2023-04-10T11:36:19;99262.95;;;12.85;85.09
37904;BME280;23738;50.422;18.758;2023-04-10T11:38:58;99261.43;;;12.85;84.97
37904;BME280;23738;50.422;18.758;2023-04-10T11:41:31;99258.21;;;12.89;85.02
37904;BME280;23738;50.422;18.758;2023-04-10T11:44:02;99253.14;;;12.89;83.98
37904;BME280;23738;50.422;18.758;2023-04-10T11:46:34;99250.66;;;12.90;84.75
37904;BME280;23738;50.422;18.758;2023-04-10T11:49:05;99240.39;;;13.00;84.62
37904;BME280;23738;50.422;18.758;2023-04-10T11:51:35;99232.91;;;13.14;84.81
37904;BME280;23738;50.422;18.758;2023-04-10T11:54:09;99227.11;;;13.36;84.34
37904;BME280;23738;50.422;18.758;2023-04-10T11:56:41;99226.23;;;13.57;84.06
37904;BME280;23738;50.422;18.758;2023-04-10T11:59:11;99219.52;;;13.79;82.77
37904;BME280;23738;50.422;18.758;2023-04-10T12:01:43;99217.73;;;13.94;81.92
37904;BME280;23738;50.422;18.758;2023-04-10T12:04:17;99212.36;;;14.10;83.28
37904;BME280;23738;50.422;18.758;2023-04-10T12:06:48;99210.50;;;14.37;82.85
37904;BME280;23738;50.422;18.758;2023-04-10T12:09:19;99208.80;;;14.56;82.72
37904;BME280;23738;50.422;18.758;2023-04-10T12:11:54;99206.69;;;14.80;82.62
37904;BME280;23738;50.422;18.758;2023-04-10T12:14:29;99199.45;;;15.08;83.62
37904;BME280;23738;50.422;18.758;2023-04-10T12:16:58;99198.98;;;15.52;82.11
37904;BME280;23738;50.422;18.758;2023-04-10T12:19:29;99191.15;;;15.61;82.07
37904;BME280;23738;50.422;18.758;2023-04-10T12:21:59;99188.90;;;15.77;81.98
37904;BME280;23738;50.422;18.758;2023-04-10T12:24:46;99185.00;;;15.97;81.53
37904;BME280;23738;50.422;18.758;2023-04-10T12:27:19;99181.38;;;15.94;80.14
37904;BME280;23738;50.422;18.758;2023-04-10T12:29:50;99182.95;;;15.67;80.01
37904;BME280;23738;50.422;18.758;2023-04-10T12:32:21;99174.15;;;15.43;79.79
37904;BME280;23738;50.422;18.758;2023-04-10T12:34:54;99174.35;;;15.51;80.17
37904;BME280;23738;50.422;18.758;2023-04-10T12:37:24;99173.73;;;15.70;80.60
37904;BME280;23738;50.422;18.758;2023-04-10T12:40:15;99167.44;;;15.91;80.96
37904;BME280;23738;50.422;18.758;2023-04-10T12:42:44;99165.52;;;15.99;80.80
37904;BME280;23738;50.422;18.758;2023-04-10T12:45:14;99162.70;;;16.01;80.55
37904;BME280;23738;50.422;18.758;2023-04-10T12:47:48;99164.00;;;15.98;79.68
37904;BME280;23738;50.422;18.758;2023-04-10T12:50:19;99162.86;;;15.89;79.66
37904;BME280;23738;50.422;18.758;2023-04-10T12:53:03;99160.46;;;15.87;79.58
37904;BME280;23738;50.422;18.758;2023-04-10T12:55:33;99154.63;;;15.82;79.29
37904;BME280;23738;50.422;18.758;2023-04-10T12:58:17;99144.80;;;15.81;79.14
37904;BME280;23738;50.422;18.758;2023-04-10T13:00:48;99142.66;;;15.78;78.63
37904;BME280;23738;50.422;18.758;2023-04-10T13:03:18;99137.65;;;15.64;77.97
37904;BME280;23738;50.422;18.758;2023-04-10T13:05:48;99136.66;;;15.54;78.24
37904;BME280;23738;50.422;18.758;2023-04-10T13:08:17;99129.77;;;15.54;78.58
37904;BME280;23738;50.422;18.758;2023-04-10T13:10:46;99125.05;;;15.60;78.27
37904;BME280;23738;50.422;18.758;2023-04-10T13:13:16;99118.48;;;15.74;77.96
37904;BME280;23738;50.422;18.758;2023-04-10T13:15:46;99111.13;;;15.88;77.51
37904;BME280;23738;50.422;18.758;2023-04-10T13:18:16;99108.73;;;16.12;77.99
37904;BME280;23738;50.422;18.758;2023-04-10T13:20:45;99097.59;;;16.29;77.62
37904;BME280;23738;50.422;18.758;2023-04-10T13:23:15;99097.20;;;16.52;77.07
37904;BME280;23738;50.422;18.758;2023-04-10T13:25:44;99089.27;;;16.61;77.02
37904;BME280;23738;50.422;18.758;2023-04-10T13:28:13;99095.10;;;16.68;75.90